Terminal Aerodrome Forecast
Issued by NWS Charleston, WV

Current Version | Previous Version | Graphics & Text | Print | Product List | Glossary On
Versions: 1 2 3 4 5 6 7 8 9 10 11 12 13 14 15 16 17 18 19 20
000
FTUS41 KRLX 090400 AAB
TAFPKB
TAF AMD
KPKB 090437Z 0905/0924 24007KT P6SM SCT045
     FM090500 23006KT 6SM BR SCT045
     FM090800 23005KT 5SM BR SCT045
     FM091400 24009KT P6SM SCT045
     FM092300 28007KT P6SM SCT045
      AMD NOT SKED=

USA.gov is the U.S. government's official web portal to all federal, state and local government web resources and services.